sensor_id;sensor_type;location;lat;lon;timestamp;P1;durP1;ratioP1;P2;durP2;ratioP2
20101;SDS011;10210;52.284;9.892;2023-04-15T00:01:24;10.70;;;4.60;;
20101;SDS011;10210;52.284;9.892;2023-04-15T00:03:51;9.80;;;4.27;;
20101;SDS011;10210;52.284;9.892;2023-04-15T00:06:19;12.47;;;4.40;;
20101;SDS011;10210;52.284;9.892;2023-04-15T00:08:48;11.27;;;4.80;;
20101;SDS011;10210;52.284;9.892;2023-04-15T00:11:16;10.23;;;4.60;;
20101;SDS011;10210;52.284;9.892;2023-04-15T00:13:43;10.43;;;4.40;;
20101;SDS011;10210;52.284;9.892;2023-04-15T00:16:09;11.37;;;4.30;;
20101;SDS011;10210;52.284;9.892;2023-04-15T00:18:36;11.07;;;4.67;;
20101;SDS011;10210;52.284;9.892;2023-04-15T00:21:02;12.50;;;4.93;;
20101;SDS011;10210;52.284;9.892;2023-04-15T00:23:29;12.13;;;4.47;;
20101;SDS011;10210;52.284;9.892;2023-04-15T00:25:55;10.63;;;4.63;;
20101;SDS011;10210;52.284;9.892;2023-04-15T00:28:21;10.47;;;4.40;;
20101;SDS011;10210;52.284;9.892;2023-04-15T00:30:46;10.70;;;4.70;;
20101;SDS011;10210;52.284;9.892;2023-04-15T00:33:12;10.50;;;4.23;;
20101;SDS011;10210;52.284;9.892;2023-04-15T00:35:40;9.37;;;3.83;;
20101;SDS011;10210;52.284;9.892;2023-04-15T00:38:06;10.70;;;4.50;;
20101;SDS011;10210;52.284;9.892;2023-04-15T00:40:32;11.07;;;4.10;;
20101;SDS011;10210;52.284;9.892;2023-04-15T00:42:58;12.20;;;4.83;;
20101;SDS011;10210;52.284;9.892;2023-04-15T00:45:24;11.40;;;4.60;;
20101;SDS011;10210;52.284;9.892;2023-04-15T00:47:52;10.10;;;4.30;;
20101;SDS011;10210;52.284;9.892;2023-04-15T00:50:17;12.63;;;4.70;;
20101;SDS011;10210;52.284;9.892;2023-04-15T00:52:43;11.67;;;4.50;;
20101;SDS011;10210;52.284;9.892;2023-04-15T00:55:09;11.63;;;5.03;;
20101;SDS011;10210;52.284;9.892;2023-04-15T00:57:35;11.03;;;4.43;;
20101;SDS011;10210;52.284;9.892;2023-04-15T01:00:02;11.03;;;4.60;;
20101;SDS011;10210;52.284;9.892;2023-04-15T01:02:33;11.77;;;4.93;;
20101;SDS011;10210;52.284;9.892;2023-04-15T01:05:00;12.83;;;4.77;;
20101;SDS011;10210;52.284;9.892;2023-04-15T01:07:27;11.80;;;5.20;;
20101;SDS011;10210;52.284;9.892;2023-04-15T01:09:54;11.97;;;5.20;;
20101;SDS011;10210;52.284;9.892;2023-04-15T01:12:19;12.10;;;5.37;;
20101;SDS011;10210;52.284;9.892;2023-04-15T01:14:45;11.87;;;5.30;;
20101;SDS011;10210;52.284;9.892;2023-04-15T01:17:11;12.47;;;5.10;;
20101;SDS011;10210;52.284;9.892;2023-04-15T01:19:37;11.63;;;5.27;;
20101;SDS011;10210;52.284;9.892;2023-04-15T01:22:03;11.40;;;4.90;;
20101;SDS011;10210;52.284;9.892;2023-04-15T01:24:29;11.60;;;5.23;;
20101;SDS011;10210;52.284;9.892;2023-04-15T01:26:57;12.83;;;5.30;;
20101;SDS011;10210;52.284;9.892;2023-04-15T01:29:23;11.53;;;5.27;;
20101;SDS011;10210;52.284;9.892;2023-04-15T01:31:50;12.27;;;5.60;;
20101;SDS011;10210;52.284;9.892;2023-04-15T01:34:17;13.47;;;5.50;;
20101;SDS011;10210;52.284;9.892;2023-04-15T01:36:43;13.50;;;6.27;;
20101;SDS011;10210;52.284;9.892;2023-04-15T01:39:09;12.50;;;5.50;;
20101;SDS011;10210;52.284;9.892;2023-04-15T01:41:34;13.47;;;6.23;;
20101;SDS011;10210;52.284;9.892;2023-04-15T01:44:00;12.77;;;5.93;;
20101;SDS011;10210;52.284;9.892;2023-04-15T01:46:26;14.13;;;6.33;;
20101;SDS011;10210;52.284;9.892;2023-04-15T01:48:51;13.57;;;6.20;;
20101;SDS011;10210;52.284;9.892;2023-04-15T01:51:17;13.37;;;6.00;;
20101;SDS011;10210;52.284;9.892;2023-04-15T01:53:43;14.53;;;6.80;;
20101;SDS011;10210;52.284;9.892;2023-04-15T01:56:08;13.30;;;6.37;;
20101;SDS011;10210;52.284;9.892;2023-04-15T01:58:34;14.23;;;6.37;;
20101;SDS011;10210;52.284;9.892;2023-04-15T02:01:00;14.63;;;7.30;;
20101;SDS011;10210;52.284;9.892;2023-04-15T02:03:27;13.80;;;6.60;;
20101;SDS011;10210;52.284;9.892;2023-04-15T02:05:53;14.53;;;7.30;;
20101;SDS011;10210;52.284;9.892;2023-04-15T02:08:19;15.27;;;7.70;;
20101;SDS011;10210;52.284;9.892;2023-04-15T02:10:45;15.27;;;7.60;;
20101;SDS011;10210;52.284;9.892;2023-04-15T02:13:10;17.83;;;8.77;;
20101;SDS011;10210;52.284;9.892;2023-04-15T02:15:36;16.00;;;8.03;;
20101;SDS011;10210;52.284;9.892;2023-04-15T02:18:02;15.63;;;7.93;;
20101;SDS011;10210;52.284;9.892;2023-04-15T02:20:29;14.97;;;7.93;;
20101;SDS011;10210;52.284;9.892;2023-04-15T02:22:54;16.30;;;8.50;;
20101;SDS011;10210;52.284;9.892;2023-04-15T02:25:21;16.87;;;8.77;;
20101;SDS011;10210;52.284;9.892;2023-04-15T02:27:46;16.57;;;8.20;;
20101;SDS011;10210;52.284;9.892;2023-04-15T02:30:12;18.13;;;9.17;;
20101;SDS011;10210;52.284;9.892;2023-04-15T02:32:39;16.27;;;9.17;;
20101;SDS011;10210;52.284;9.892;2023-04-15T02:35:07;16.97;;;9.70;;
20101;SDS011;10210;52.284;9.892;2023-04-15T02:37:36;16.10;;;8.87;;
20101;SDS011;10210;52.284;9.892;2023-04-15T02:40:07;16.77;;;8.93;;
20101;SDS011;10210;52.284;9.892;2023-04-15T02:42:36;16.93;;;8.97;;
20101;SDS011;10210;52.284;9.892;2023-04-15T02:45:05;17.87;;;9.33;;
20101;SDS011;10210;52.284;9.892;2023-04-15T02:47:32;17.90;;;9.87;;
20101;SDS011;10210;52.284;9.892;2023-04-15T02:50:06;17.40;;;9.47;;
20101;SDS011;10210;52.284;9.892;2023-04-15T02:52:33;18.03;;;9.33;;
20101;SDS011;10210;52.284;9.892;2023-04-15T02:54:58;18.43;;;9.80;;
20101;SDS011;10210;52.284;9.892;2023-04-15T02:57:26;19.03;;;9.53;;
20101;SDS011;10210;52.284;9.892;2023-04-15T02:59:53;17.87;;;9.60;;
20101;SDS011;10210;52.284;9.892;2023-04-15T03:02:19;17.40;;;9.20;;
20101;SDS011;10210;52.284;9.892;2023-04-15T03:04:45;18.80;;;9.97;;
20101;SDS011;10210;52.284;9.892;2023-04-15T03:07:11;17.53;;;10.10;;
20101;SDS011;10210;52.284;9.892;2023-04-15T03:09:36;18.87;;;9.57;;
20101;SDS011;10210;52.284;9.892;2023-04-15T03:12:04;16.97;;;9.30;;
20101;SDS011;10210;52.284;9.892;2023-04-15T03:14:30;18.70;;;9.97;;
20101;SDS011;10210;52.284;9.892;2023-04-15T03:16:55;18.23;;;9.40;;
20101;SDS011;10210;52.284;9.892;2023-04-15T03:19:23;17.80;;;8.93;;
20101;SDS011;10210;52.284;9.892;2023-04-15T03:21:49;17.97;;;9.60;;
20101;SDS011;10210;52.284;9.892;2023-04-15T03:24:16;18.43;;;10.27;;
20101;SDS011;10210;52.284;9.892;2023-04-15T03:26:42;19.03;;;10.40;;
20101;SDS011;10210;52.284;9.892;2023-04-15T03:29:07;19.87;;;10.90;;
20101;SDS011;10210;52.284;9.892;2023-04-15T03:31:33;19.57;;;9.90;;
20101;SDS011;10210;52.284;9.892;2023-04-15T03:33:59;19.47;;;10.20;;
20101;SDS011;10210;52.284;9.892;2023-04-15T03:36:25;22.03;;;11.57;;
20101;SDS011;10210;52.284;9.892;2023-04-15T03:38:53;19.83;;;11.60;;
20101;SDS011;10210;52.284;9.892;2023-04-15T03:41:20;21.93;;;10.83;;
20101;SDS011;10210;52.284;9.892;2023-04-15T03:43:45;20.00;;;11.57;;
20101;SDS011;10210;52.284;9.892;2023-04-15T03:46:11;20.50;;;12.23;;
20101;SDS011;10210;52.284;9.892;2023-04-15T03:48:36;22.67;;;11.73;;
20101;SDS011;10210;52.284;9.892;2023-04-15T03:51:02;21.10;;;12.40;;
20101;SDS011;10210;52.284;9.892;2023-04-15T03:53:28;23.37;;;13.67;;
20101;SDS011;10210;52.284;9.892;2023-04-15T03:55:53;22.40;;;13.33;;
20101;SDS011;10210;52.284;9.892;2023-04-15T03:58:19;22.60;;;12.87;;
20101;SDS011;10210;52.284;9.892;2023-04-15T04:00:45;21.40;;;12.97;;
20101;SDS011;10210;52.284;9.892;2023-04-15T04:03:10;23.40;;;13.63;;
20101;SDS011;10210;52.284;9.892;2023-04-15T04:05:36;23.10;;;13.90;;
20101;SDS011;10210;52.284;9.892;2023-04-15T04:08:03;23.00;;;13.63;;
20101;SDS011;10210;52.284;9.892;2023-04-15T04:10:29;23.27;;;13.20;;
20101;SDS011;10210;52.284;9.892;2023-04-15T04:12:55;24.27;;;14.40;;
20101;SDS011;10210;52.284;9.892;2023-04-15T04:15:20;24.47;;;13.27;;
20101;SDS011;10210;52.284;9.892;2023-04-15T04:17:46;22.87;;;13.37;;
20101;SDS011;10210;52.284;9.892;2023-04-15T04:20:12;22.97;;;13.60;;
20101;SDS011;10210;52.284;9.892;2023-04-15T04:22:38;23.03;;;14.00;;
20101;SDS011;10210;52.284;9.892;2023-04-15T04:25:05;24.20;;;13.37;;
20101;SDS011;10210;52.284;9.892;2023-04-15T04:27:32;22.30;;;13.13;;
20101;SDS011;10210;52.284;9.892;2023-04-15T04:29:59;23.33;;;13.77;;
20101;SDS011;10210;52.284;9.892;2023-04-15T04:32:25;26.00;;;15.33;;
20101;SDS011;10210;52.284;9.892;2023-04-15T04:34:51;22.67;;;13.83;;
20101;SDS011;10210;52.284;9.892;2023-04-15T04:37:17;25.13;;;15.67;;
20101;SDS011;10210;52.284;9.892;2023-04-15T04:39:42;27.37;;;17.03;;
20101;SDS011;10210;52.284;9.892;2023-04-15T04:42:08;26.77;;;16.73;;
20101;SDS011;10210;52.284;9.892;2023-04-15T04:44:33;26.77;;;16.70;;
20101;SDS011;10210;52.284;9.892;2023-04-15T04:46:59;25.67;;;16.17;;
20101;SDS011;10210;52.284;9.892;2023-04-15T04:49:25;27.47;;;16.00;;
20101;SDS011;10210;52.284;9.892;2023-04-15T04:51:50;25.53;;;15.50;;
20101;SDS011;10210;52.284;9.892;2023-04-15T04:54:16;27.07;;;16.93;;
20101;SDS011;10210;52.284;9.892;2023-04-15T04:56:42;26.43;;;15.87;;
20101;SDS011;10210;52.284;9.892;2023-04-15T04:59:07;27.03;;;15.73;;
20101;SDS011;10210;52.284;9.892;2023-04-15T05:01:33;26.73;;;16.30;;
20101;SDS011;10210;52.284;9.892;2023-04-15T05:03:59;25.40;;;15.13;;
20101;SDS011;10210;52.284;9.892;2023-04-15T05:06:25;27.13;;;16.40;;
20101;SDS011;10210;52.284;9.892;2023-04-15T05:08:51;27.03;;;15.43;;
20101;SDS011;10210;52.284;9.892;2023-04-15T05:11:17;27.40;;;16.33;;
20101;SDS011;10210;52.284;9.892;2023-04-15T05:13:42;24.53;;;14.50;;
20101;SDS011;10210;52.284;9.892;2023-04-15T05:16:08;25.90;;;15.63;;
20101;SDS011;10210;52.284;9.892;2023-04-15T05:18:34;24.73;;;14.70;;
20101;SDS011;10210;52.284;9.892;2023-04-15T05:20:59;25.93;;;15.30;;
20101;SDS011;10210;52.284;9.892;2023-04-15T05:23:26;26.77;;;15.17;;
20101;SDS011;10210;52.284;9.892;2023-04-15T05:25:52;24.23;;;14.27;;
20101;SDS011;10210;52.284;9.892;2023-04-15T05:28:18;25.13;;;15.30;;
20101;SDS011;10210;52.284;9.892;2023-04-15T05:30:43;24.87;;;14.80;;
20101;SDS011;10210;52.284;9.892;2023-04-15T05:33:09;24.27;;;14.47;;
20101;SDS011;10210;52.284;9.892;2023-04-15T05:35:35;21.57;;;12.60;;
20101;SDS011;10210;52.284;9.892;2023-04-15T05:38:01;22.53;;;13.17;;
20101;SDS011;10210;52.284;9.892;2023-04-15T05:40:26;26.10;;;14.27;;
20101;SDS011;10210;52.284;9.892;2023-04-15T05:42:52;23.83;;;13.80;;
20101;SDS011;10210;52.284;9.892;2023-04-15T05:45:18;21.03;;;12.60;;
20101;SDS011;10210;52.284;9.892;2023-04-15T05:47:44;23.13;;;13.63;;
20101;SDS011;10210;52.284;9.892;2023-04-15T05:50:09;22.53;;;12.87;;
20101;SDS011;10210;52.284;9.892;2023-04-15T05:52:35;22.67;;;13.70;;
20101;SDS011;10210;52.284;9.892;2023-04-15T05:55:01;20.53;;;11.83;;
20101;SDS011;10210;52.284;9.892;2023-04-15T05:57:27;22.63;;;13.03;;
20101;SDS011;10210;52.284;9.892;2023-04-15T05:59:52;20.90;;;11.50;;
20101;SDS011;10210;52.284;9.892;2023-04-15T06:02:19;20.83;;;11.90;;
20101;SDS011;10210;52.284;9.892;2023-04-15T06:04:45;20.50;;;11.67;;
20101;SDS011;10210;52.284;9.892;2023-04-15T06:07:11;20.47;;;11.00;;
20101;SDS011;10210;52.284;9.892;2023-04-15T06:09:37;19.30;;;11.00;;
20101;SDS011;10210;52.284;9.892;2023-04-15T06:12:03;18.67;;;10.03;;
20101;SDS011;10210;52.284;9.892;2023-04-15T06:14:30;19.10;;;10.93;;
20101;SDS011;10210;52.284;9.892;2023-04-15T06:16:56;18.63;;;10.23;;
20101;SDS011;10210;52.284;9.892;2023-04-15T06:19:22;20.23;;;11.27;;
20101;SDS011;10210;52.284;9.892;2023-04-15T06:21:47;19.73;;;10.07;;
20101;SDS011;10210;52.284;9.892;2023-04-15T06:24:13;19.10;;;10.30;;
20101;SDS011;10210;52.284;9.892;2023-04-15T06:26:38;19.53;;;10.50;;
20101;SDS011;10210;52.284;9.892;2023-04-15T06:29:04;19.30;;;10.67;;
20101;SDS011;10210;52.284;9.892;2023-04-15T06:31:30;16.80;;;9.80;;
20101;SDS011;10210;52.284;9.892;2023-04-15T06:33:55;16.73;;;8.50;;
20101;SDS011;10210;52.284;9.892;2023-04-15T06:36:21;17.30;;;9.10;;
20101;SDS011;10210;52.284;9.892;2023-04-15T06:38:47;16.33;;;8.63;;
20101;SDS011;10210;52.284;9.892;2023-04-15T06:41:12;16.17;;;8.37;;
20101;SDS011;10210;52.284;9.892;2023-04-15T06:43:38;17.37;;;9.33;;
20101;SDS011;10210;52.284;9.892;2023-04-15T06:46:04;16.13;;;8.20;;
20101;SDS011;10210;52.284;9.892;2023-04-15T06:48:30;15.40;;;7.90;;
20101;SDS011;10210;52.284;9.892;2023-04-15T06:50:56;16.00;;;8.43;;
20101;SDS011;10210;52.284;9.892;2023-04-15T06:53:23;15.77;;;8.33;;
20101;SDS011;10210;52.284;9.892;2023-04-15T06:55:51;18.23;;;9.17;;
20101;SDS011;10210;52.284;9.892;2023-04-15T06:58:17;15.47;;;7.87;;
20101;SDS011;10210;52.284;9.892;2023-04-15T07:00:43;14.83;;;8.03;;
20101;SDS011;10210;52.284;9.892;2023-04-15T07:03:09;17.33;;;8.10;;
20101;SDS011;10210;52.284;9.892;2023-04-15T07:05:36;15.33;;;7.83;;
20101;SDS011;10210;52.284;9.892;2023-04-15T07:08:03;14.40;;;7.27;;
20101;SDS011;10210;52.284;9.892;2023-04-15T07:10:29;15.43;;;7.80;;
20101;SDS011;10210;52.284;9.892;2023-04-15T07:12:55;16.23;;;8.30;;
20101;SDS011;10210;52.284;9.892;2023-04-15T07:15:21;16.00;;;7.87;;
20101;SDS011;10210;52.284;9.892;2023-04-15T07:17:47;15.93;;;8.13;;
20101;SDS011;10210;52.284;9.892;2023-04-15T07:20:13;15.40;;;7.50;;
20101;SDS011;10210;52.284;9.892;2023-04-15T07:22:39;15.90;;;7.93;;
20101;SDS011;10210;52.284;9.892;2023-04-15T07:25:04;15.07;;;7.43;;
20101;SDS011;10210;52.284;9.892;2023-04-15T07:27:31;14.17;;;6.83;;
20101;SDS011;10210;52.284;9.892;2023-04-15T07:29:57;14.07;;;6.37;;
20101;SDS011;10210;52.284;9.892;2023-04-15T07:32:23;14.07;;;6.97;;
20101;SDS011;10210;52.284;9.892;2023-04-15T07:34:48;14.63;;;7.00;;
20101;SDS011;10210;52.284;9.892;2023-04-15T07:37:14;14.30;;;6.47;;
20101;SDS011;10210;52.284;9.892;2023-04-15T07:39:40;13.43;;;6.43;;
20101;SDS011;10210;52.284;9.892;2023-04-15T07:42:05;13.30;;;6.43;;
20101;SDS011;10210;52.284;9.892;2023-04-15T07:44:31;13.47;;;6.23;;
20101;SDS011;10210;52.284;9.892;2023-04-15T07:46:57;13.57;;;5.87;;
20101;SDS011;10210;52.284;9.892;2023-04-15T07:49:22;13.83;;;5.80;;
20101;SDS011;10210;52.284;9.892;2023-04-15T07:51:48;14.03;;;6.40;;
20101;SDS011;10210;52.284;9.892;2023-04-15T07:54:14;12.30;;;5.17;;
20101;SDS011;10210;52.284;9.892;2023-04-15T07:56:40;12.03;;;5.27;;
20101;SDS011;10210;52.284;9.892;2023-04-15T07:59:06;12.03;;;4.90;;
20101;SDS011;10210;52.284;9.892;2023-04-15T08:01:33;11.53;;;5.20;;
20101;SDS011;10210;52.284;9.892;2023-04-15T08:03:59;11.73;;;4.53;;
20101;SDS011;10210;52.284;9.892;2023-04-15T08:06:24;11.23;;;4.60;;
20101;SDS011;10210;52.284;9.892;2023-04-15T08:08:51;12.17;;;5.27;;
20101;SDS011;10210;52.284;9.892;2023-04-15T08:11:18;11.17;;;4.80;;
20101;SDS011;10210;52.284;9.892;2023-04-15T08:13:45;11.13;;;4.77;;
20101;SDS011;10210;52.284;9.892;2023-04-15T08:16:21;11.57;;;4.57;;
20101;SDS011;10210;52.284;9.892;2023-04-15T08:18:49;10.43;;;4.37;;
20101;SDS011;10210;52.284;9.892;2023-04-15T08:21:17;10.60;;;4.37;;
20101;SDS011;10210;52.284;9.892;2023-04-15T08:23:45;9.90;;;4.40;;
20101;SDS011;10210;52.284;9.892;2023-04-15T08:26:13;10.63;;;4.20;;
20101;SDS011;10210;52.284;9.892;2023-04-15T08:28:39;10.20;;;3.87;;
20101;SDS011;10210;52.284;9.892;2023-04-15T08:31:06;9.50;;;3.70;;
20101;SDS011;10210;52.284;9.892;2023-04-15T08:33:33;9.63;;;3.70;;
20101;SDS011;10210;52.284;9.892;2023-04-15T08:35:59;9.47;;;3.67;;
20101;SDS011;10210;52.284;9.892;2023-04-15T08:38:24;9.40;;;3.60;;
20101;SDS011;10210;52.284;9.892;2023-04-15T08:40:50;9.00;;;3.50;;
20101;SDS011;10210;52.284;9.892;2023-04-15T08:43:26;9.13;;;3.53;;
20101;SDS011;10210;52.284;9.892;2023-04-15T08:45:57;8.43;;;3.47;;
20101;SDS011;10210;52.284;9.892;2023-04-15T08:48:28;7.73;;;3.33;;
20101;SDS011;10210;52.284;9.892;2023-04-15T08:50:57;8.60;;;3.50;;
20101;SDS011;10210;52.284;9.892;2023-04-15T08:53:23;8.30;;;3.43;;
20101;SDS011;10210;52.284;9.892;2023-04-15T08:55:50;9.53;;;3.50;;
20101;SDS011;10210;52.284;9.892;2023-04-15T08:58:18;8.57;;;3.43;;
20101;SDS011;10210;52.284;9.892;2023-04-15T09:00:44;8.63;;;3.67;;
20101;SDS011;10210;52.284;9.892;2023-04-15T09:03:09;9.27;;;4.00;;
20101;SDS011;10210;52.284;9.892;2023-04-15T09:05:36;8.87;;;3.50;;
20101;SDS011;10210;52.284;9.892;2023-04-15T09:08:03;8.40;;;3.57;;
20101;SDS011;10210;52.284;9.892;2023-04-15T09:10:30;8.50;;;3.60;;
20101;SDS011;10210;52.284;9.892;2023-04-15T09:12:58;9.80;;;4.03;;
20101;SDS011;10210;52.284;9.892;2023-04-15T09:15:25;8.87;;;3.53;;
20101;SDS011;10210;52.284;9.892;2023-04-15T09:17:53;9.23;;;3.83;;
20101;SDS011;10210;52.284;9.892;2023-04-15T09:20:20;9.83;;;4.17;;
20101;SDS011;10210;52.284;9.892;2023-04-15T09:22:47;10.37;;;4.30;;
20101;SDS011;10210;52.284;9.892;2023-04-15T09:27:49;9.67;;;3.73;;
20101;SDS011;10210;52.284;9.892;2023-04-15T09:30:24;10.83;;;4.13;;
20101;SDS011;10210;52.284;9.892;2023-04-15T09:32:55;10.20;;;4.07;;
20101;SDS011;10210;52.284;9.892;2023-04-15T09:35:32;11.37;;;4.40;;
20101;SDS011;10210;52.284;9.892;2023-04-15T09:40:34;9.47;;;3.83;;
20101;SDS011;10210;52.284;9.892;2023-04-15T09:43:07;11.27;;;4.23;;
20101;SDS011;10210;52.284;9.892;2023-04-15T09:45:36;14.53;;;4.83;;
20101;SDS011;10210;52.284;9.892;2023-04-15T09:48:15;11.87;;;4.83;;
20101;SDS011;10210;52.284;9.892;2023-04-15T09:50:50;11.80;;;4.93;;
20101;SDS011;10210;52.284;9.892;2023-04-15T09:53:22;11.17;;;4.77;;
20101;SDS011;10210;52.284;9.892;2023-04-15T09:55:50;11.50;;;4.77;;
20101;SDS011;10210;52.284;9.892;2023-04-15T10:00:49;13.37;;;5.30;;
20101;SDS011;10210;52.284;9.892;2023-04-15T10:03:18;12.17;;;5.43;;
20101;SDS011;10210;52.284;9.892;2023-04-15T10:05:47;14.27;;;5.77;;
20101;SDS011;10210;52.284;9.892;2023-04-15T10:08:18;12.27;;;5.53;;
20101;SDS011;10210;52.284;9.892;2023-04-15T10:10:47;14.50;;;6.60;;
20101;SDS011;10210;52.284;9.892;2023-04-15T10:13:16;13.97;;;6.43;;
20101;SDS011;10210;52.284;9.892;2023-04-15T10:15:44;15.53;;;6.87;;
20101;SDS011;10210;52.284;9.892;2023-04-15T10:18:16;14.87;;;6.60;;
20101;SDS011;10210;52.284;9.892;2023-04-15T10:20:45;14.83;;;6.83;;
20101;SDS011;10210;52.284;9.892;2023-04-15T10:23:13;14.57;;;7.07;;
20101;SDS011;10210;52.284;9.892;2023-04-15T10:25:40;16.47;;;8.53;;
20101;SDS011;10210;52.284;9.892;2023-04-15T10:28:06;15.83;;;8.03;;
20101;SDS011;10210;52.284;9.892;2023-04-15T10:30:33;16.83;;;7.60;;
20101;SDS011;10210;52.284;9.892;2023-04-15T10:33:00;17.20;;;8.23;;
20101;SDS011;10210;52.284;9.892;2023-04-15T10:35:28;17.90;;;8.33;;
20101;SDS011;10210;52.284;9.892;2023-04-15T10:37:55;18.70;;;8.83;;
20101;SDS011;10210;52.284;9.892;2023-04-15T10:40:30;21.03;;;10.60;;
20101;SDS011;10210;52.284;9.892;2023-04-15T10:42:58;17.70;;;9.53;;
20101;SDS011;10210;52.284;9.892;2023-04-15T10:45:32;18.17;;;9.23;;
20101;SDS011;10210;52.284;9.892;2023-04-15T10:48:01;19.27;;;9.80;;
20101;SDS011;10210;52.284;9.892;2023-04-15T10:50:31;18.53;;;9.93;;
20101;SDS011;10210;52.284;9.892;2023-04-15T10:52:57;19.97;;;10.63;;
20101;SDS011;10210;52.284;9.892;2023-04-15T10:55:26;21.03;;;11.43;;
20101;SDS011;10210;52.284;9.892;2023-04-15T10:57:58;22.17;;;11.00;;
20101;SDS011;10210;52.284;9.892;2023-04-15T11:00:27;21.93;;;11.57;;
20101;SDS011;10210;52.284;9.892;2023-04-15T11:02:58;21.50;;;12.30;;
20101;SDS011;10210;52.284;9.892;2023-04-15T11:08:16;24.50;;;11.90;;
20101;SDS011;10210;52.284;9.892;2023-04-15T11:15:34;26.17;;;14.13;;
20101;SDS011;10210;52.284;9.892;2023-04-15T11:18:14;26.20;;;13.70;;
20101;SDS011;10210;52.284;9.892;2023-04-15T11:20:43;23.20;;;13.40;;
20101;SDS011;10210;52.284;9.892;2023-04-15T11:23:17;27.70;;;15.97;;
20101;SDS011;10210;52.284;9.892;2023-04-15T11:26:06;29.60;;;15.90;;
20101;SDS011;10210;52.284;9.892;2023-04-15T11:28:40;27.17;;;15.23;;
20101;SDS011;10210;52.284;9.892;2023-04-15T11:31:11;27.90;;;15.93;;
20101;SDS011;10210;52.284;9.892;2023-04-15T11:33:46;29.53;;;17.10;;
20101;SDS011;10210;52.284;9.892;2023-04-15T11:36:24;28.40;;;16.13;;
20101;SDS011;10210;52.284;9.892;2023-04-15T11:38:53;29.60;;;17.57;;
20101;SDS011;10210;52.284;9.892;2023-04-15T11:41:22;29.73;;;16.80;;
20101;SDS011;10210;52.284;9.892;2023-04-15T11:43:48;30.00;;;17.60;;
20101;SDS011;10210;52.284;9.892;2023-04-15T11:46:16;31.73;;;17.67;;
20101;SDS011;10210;52.284;9.892;2023-04-15T11:48:42;31.10;;;17.30;;
20101;SDS011;10210;52.284;9.892;2023-04-15T11:51:11;34.30;;;19.43;;
20101;SDS011;10210;52.284;9.892;2023-04-15T11:53:38;31.07;;;18.43;;
20101;SDS011;10210;52.284;9.892;2023-04-15T11:56:08;32.03;;;18.40;;
20101;SDS011;10210;52.284;9.892;2023-04-15T11:58:36;33.90;;;19.37;;
20101;SDS011;10210;52.284;9.892;2023-04-15T12:01:03;34.30;;;20.17;;
20101;SDS011;10210;52.284;9.892;2023-04-15T12:11:40;39.23;;;23.40;;
20101;SDS011;10210;52.284;9.892;2023-04-15T12:14:08;36.23;;;21.87;;
20101;SDS011;10210;52.284;9.892;2023-04-15T12:16:45;38.90;;;23.27;;
20101;SDS011;10210;52.284;9.892;2023-04-15T12:19:14;40.63;;;24.07;;
20101;SDS011;10210;52.284;9.892;2023-04-15T12:21:44;37.97;;;23.73;;
20101;SDS011;10210;52.284;9.892;2023-04-15T12:24:12;39.70;;;24.73;;
20101;SDS011;10210;52.284;9.892;2023-04-15T12:27:11;41.43;;;26.33;;
20101;SDS011;10210;52.284;9.892;2023-04-15T12:29:36;41.17;;;25.83;;
20101;SDS011;10210;52.284;9.892;2023-04-15T12:32:13;42.50;;;26.07;;
20101;SDS011;10210;52.284;9.892;2023-04-15T12:34:50;40.37;;;26.07;;
20101;SDS011;10210;52.284;9.892;2023-04-15T12:37:18;43.20;;;26.47;;
20101;SDS011;10210;52.284;9.892;2023-04-15T12:39:45;42.23;;;27.07;;
20101;SDS011;10210;52.284;9.892;2023-04-15T12:42:13;45.37;;;28.20;;
20101;SDS011;10210;52.284;9.892;2023-04-15T12:44:39;42.60;;;26.10;;
20101;SDS011;10210;52.284;9.892;2023-04-15T12:47:06;44.17;;;25.47;;
20101;SDS011;10210;52.284;9.892;2023-04-15T12:49:33;41.53;;;25.07;;
20101;SDS011;10210;52.284;9.892;2023-04-15T12:51:59;43.63;;;26.20;;
20101;SDS011;10210;52.284;9.892;2023-04-15T12:54:27;41.57;;;24.63;;
20101;SDS011;10210;52.284;9.892;2023-04-15T12:56:54;41.87;;;26.00;;
20101;SDS011;10210;52.284;9.892;2023-04-15T12:59:21;40.47;;;24.47;;
20101;SDS011;10210;52.284;9.892;2023-04-15T13:01:47;40.57;;;25.87;;
20101;SDS011;10210;52.284;9.892;2023-04-15T13:04:15;43.37;;;25.40;;
20101;SDS011;10210;52.284;9.892;2023-04-15T13:06:42;39.77;;;25.30;;
20101;SDS011;10210;52.284;9.892;2023-04-15T13:09:08;42.87;;;26.23;;
20101;SDS011;10210;52.284;9.892;2023-04-15T13:11:34;38.27;;;24.20;;
20101;SDS011;10210;52.284;9.892;2023-04-15T13:14:00;40.00;;;24.40;;
20101;SDS011;10210;52.284;9.892;2023-04-15T13:16:31;39.23;;;24.17;;
20101;SDS011;10210;52.284;9.892;2023-04-15T13:18:58;39.43;;;25.13;;
20101;SDS011;10210;52.284;9.892;2023-04-15T13:21:25;39.23;;;24.13;;
20101;SDS011;10210;52.284;9.892;2023-04-15T13:23:51;40.77;;;24.03;;
20101;SDS011;10210;52.284;9.892;2023-04-15T13:26:17;39.07;;;23.53;;
20101;SDS011;10210;52.284;9.892;2023-04-15T13:28:43;37.37;;;23.50;;
20101;SDS011;10210;52.284;9.892;2023-04-15T13:31:10;38.57;;;23.40;;
20101;SDS011;10210;52.284;9.892;2023-04-15T13:33:35;41.63;;;25.70;;
20101;SDS011;10210;52.284;9.892;2023-04-15T13:36:01;39.60;;;24.70;;
20101;SDS011;10210;52.284;9.892;2023-04-15T13:38:27;38.47;;;24.30;;
20101;SDS011;10210;52.284;9.892;2023-04-15T13:40:53;40.10;;;24.70;;
20101;SDS011;10210;52.284;9.892;2023-04-15T13:43:18;37.93;;;23.83;;
20101;SDS011;10210;52.284;9.892;2023-04-15T13:45:45;38.10;;;23.67;;
20101;SDS011;10210;52.284;9.892;2023-04-15T13:48:11;37.20;;;24.03;;
20101;SDS011;10210;52.284;9.892;2023-04-15T13:50:37;37.93;;;23.23;;
20101;SDS011;10210;52.284;9.892;2023-04-15T13:53:02;37.37;;;22.70;;
20101;SDS011;10210;52.284;9.892;2023-04-15T13:55:28;38.60;;;23.47;;
20101;SDS011;10210;52.284;9.892;2023-04-15T13:57:55;37.43;;;23.00;;
20101;SDS011;10210;52.284;9.892;2023-04-15T14:00:20;37.07;;;22.67;;
20101;SDS011;10210;52.284;9.892;2023-04-15T14:02:46;34.67;;;22.27;;
20101;SDS011;10210;52.284;9.892;2023-04-15T14:05:12;36.50;;;22.43;;
20101;SDS011;10210;52.284;9.892;2023-04-15T14:07:38;35.53;;;22.80;;
20101;SDS011;10210;52.284;9.892;2023-04-15T14:10:04;33.77;;;21.93;;
20101;SDS011;10210;52.284;9.892;2023-04-15T14:12:34;35.13;;;22.97;;
20101;SDS011;10210;52.284;9.892;2023-04-15T14:15:00;33.17;;;21.57;;
20101;SDS011;10210;52.284;9.892;2023-04-15T14:17:26;35.60;;;22.07;;
20101;SDS011;10210;52.284;9.892;2023-04-15T14:19:51;33.97;;;21.97;;
20101;SDS011;10210;52.284;9.892;2023-04-15T14:22:17;31.13;;;21.40;;
20101;SDS011;10210;52.284;9.892;2023-04-15T14:24:43;34.63;;;21.17;;
20101;SDS011;10210;52.284;9.892;2023-04-15T14:27:09;31.40;;;20.77;;
20101;SDS011;10210;52.284;9.892;2023-04-15T14:29:36;30.37;;;20.50;;
20101;SDS011;10210;52.284;9.892;2023-04-15T14:32:02;31.53;;;21.93;;
20101;SDS011;10210;52.284;9.892;2023-04-15T14:34:28;31.93;;;20.17;;
20101;SDS011;10210;52.284;9.892;2023-04-15T14:36:54;32.73;;;21.90;;
20101;SDS011;10210;52.284;9.892;2023-04-15T14:39:20;33.93;;;22.20;;
20101;SDS011;10210;52.284;9.892;2023-04-15T14:41:46;30.60;;;20.43;;
20101;SDS011;10210;52.284;9.892;2023-04-15T14:44:11;32.37;;;22.20;;
20101;SDS011;10210;52.284;9.892;2023-04-15T14:46:37;34.00;;;22.50;;
20101;SDS011;10210;52.284;9.892;2023-04-15T14:49:04;29.87;;;20.03;;
20101;SDS011;10210;52.284;9.892;2023-04-15T14:51:31;29.70;;;18.77;;